McChord Air Force Base
KTCM : rendu visible

Aérodrome :











RETROUVEZ-NOUS SUR...

 
LOGIN :

S'inscrire | Disclaimer

   EN    FR    IT 

 









Légende :    VFR   VFR Marginal   IFR   IFR Intensif   IFR Très Intensif
Visi : 
Plafond : 
>= 8 km
>= 3000ft
5 à 8 km
1000 à 3000 ft
1500m à 5 km
500 à 1000 ft
800 à 1500m
200 à 500 ft
< 800m
< 200 ft
Symboles :   Orages  Brouillard  Fortes neiges  Fortes précipitations  Vent > 20 kt






- Altitude de l'aérodrome : 322 ft


KTCM - McChord Air Force Base

DERNIER METAR :
  • 201805Z AUTO 16003KT 10SM FEW023 SCT031 OVC047 10/10 A3000 RMK AO2 RAE04DZB04E05 SLP164 $

METARs EXPIRÉS :
  • 201758Z AUTO 15004KT 10SM -RA FEW033 OVC047 10/10 A3000 RMK AO2 RAB17E39RAB45 SLP164 P0001 60001 T00970095 10097 20062 57010 $
  • 201745Z AUTO 19003KT 10SM -RA SCT033 OVC044 10/09 A3001 RMK AO2 RAB17E39RAB45 SLP167 $
  • 201739Z AUTO 19004KT 10SM SCT034 OVC046 10/09 A3001 RMK AO2 RAB17E39 SLP167 $
  • 201717Z AUTO 20005KT 10SM -RA SCT047 OVC055 10/09 A3002 RMK AO2 RAB17 SLP171 $
  • 201658Z AUTO 18004KT 10SM BKN050 OVC070 10/09 A3001 RMK AO2 RAE05 SLP167 P0000 T00950093 $
  • 201605Z AUTO 16004KT 10SM SCT046 BKN065 08/08 A3002 RMK AO2 RAE05 SLP171 $
  • 201558Z AUTO 18003KT 10SM -RA FEW031 FEW042 SCT060 08/08 A3002 RMK AO2 RAB00E11RAB54 SLP171 P0000 T00820082 $

TAF TAF KTCM
Valide du 20 à 13h jusqu'au 21 à 19h UTC


201300Z 2013/2119 17006KT 9999 OVC100 QNH3006INS
BECMG 2016/2017 17012KT 8000 -SHRA BKN020 OVC050 610509 510209 QNH3000INS
BECMG 2019/2020 18012G18KT 8000 -SHRA BKN015 510209 QNH2997INS
TEMPO 2020/2100 18015G25KT 510009
BECMG 2103/2104 19009KT 9999 NSW BKN020 OVC030 QNH3000INS
BECMG 2114/2115 18012KT 8000 -SHRA BKN015 OVC030 QNH3005INS TX12/2023Z TN07/2013Z



MET'MAP, la Météo Aéronautique d'un coup d'oeil ! - Copyright ORBIFLY Décembre 2007 - Disclaimer

ORBIFLY MET'MAP TEAM :

Programmation & Développement : Alexandra Zaïnal
Conception & Développement : Baudouin d'Aumeries
Co-Programmation & Développement : Marc-Olivier Méhu
Soutien technique & logistique : Manuel Goepfert

Contact : metmap@orbifly.com




SOURCES & CREDITS :

   NOAA       Earth
Advisory